Time;durP1;ratioP1;P1;durP2;ratioP2;P2;SDS_P1;SDS_P2;PMS_P1;PMS_P2;Temp;Humidity;BMP_temperature;BMP_pressure;BME280_temperature;BME280_humidity;BME280_pressure;Samples;Min_cycle;Max_cycle;Signal;HPM_P1;HPM_P2
2023/01/18 00:01:18;;;;;;;9.40;6.63;;;0.30;1.00;;;;;;5032042;28;20199;-61
2023/01/18 00:03:45;;;;;;;11.00;6.77;;;0.20;1.00;;;;;;5028052;28;20202;-60
2023/01/18 00:06:12;;;;;;;14.10;7.73;;;0.20;1.00;;;;;;5029426;28;20533;-61
2023/01/18 00:08:41;;;;;;;10.30;6.97;;;0.20;1.00;;;;;;5031856;28;20238;-61
2023/01/18 00:11:17;;;;;;;8.80;6.77;;;0.30;1.00;;;;;;5028737;28;20261;-61
2023/01/18 00:13:44;;;;;;;10.43;6.63;;;0.30;99.90;;;;;;5015775;28;20221;-61
2023/01/18 00:16:17;;;;;;;11.20;6.63;;;0.30;99.90;;;;;;5029784;28;20253;-61
2023/01/18 00:18:53;;;;;;;11.47;6.87;;;0.20;99.90;;;;;;5029862;28;20261;-61
2023/01/18 00:21:20;;;;;;;10.53;6.83;;;0.10;1.00;;;;;;5032176;28;20278;-61
2023/01/18 00:23:47;;;;;;;10.27;7.07;;;0.20;1.00;;;;;;5030479;28;20679;-61
2023/01/18 00:26:14;;;;;;;11.23;6.27;;;0.20;99.90;;;;;;5030442;28;20207;-61
2023/01/18 00:28:41;;;;;;;15.47;7.20;;;0.20;99.90;;;;;;5029493;28;20204;-60
2023/01/18 00:31:13;;;;;;;11.97;7.27;;;0.20;1.00;;;;;;5029790;28;20219;-61
2023/01/18 00:33:45;;;;;;;11.30;6.40;;;0.20;1.00;;;;;;5029146;28;20572;-60
2023/01/18 00:36:14;;;;;;;12.77;6.43;;;0.30;99.90;;;;;;5029093;28;20256;-62
2023/01/18 00:38:41;;;;;;;10.50;7.07;;;0.30;1.00;;;;;;5029309;28;20204;-60
2023/01/18 00:41:08;;;;;;;10.13;7.37;;;0.30;99.90;;;;;;5035760;28;20203;-60
2023/01/18 00:43:37;;;;;;;9.93;6.93;;;0.20;99.90;;;;;;5029472;28;20237;-60
2023/01/18 00:46:10;;;;;;;13.23;6.93;;;0.20;99.90;;;;;;5030652;28;20253;-60
2023/01/18 00:48:38;;;;;;;14.87;7.20;;;0.20;99.90;;;;;;5029369;28;20357;-60
2023/01/18 00:51:11;;;;;;;10.30;7.03;;;0.20;99.90;;;;;;5028498;28;20569;-61
2023/01/18 00:53:39;;;;;;;10.73;6.23;;;0.10;99.90;;;;;;5030824;28;20218;-60
2023/01/18 00:56:11;;;;;;;14.07;7.27;;;0.00;1.00;;;;;;5028094;28;20232;-61
2023/01/18 00:58:38;;;;;;;14.50;8.27;;;0.00;1.00;;;;;;5028243;28;20383;-60
2023/01/18 01:01:06;;;;;;;11.80;6.83;;;0.00;1.00;;;;;;5025732;28;20783;-60
2023/01/18 01:06:43;;;;;;;10.80;7.00;;;0.00;1.00;;;;;;5025346;28;20302;-62
2023/01/18 01:06:43;;;;;;;16.20;7.77;;;0.00;1.00;;;;;;5020944;28;20231;-60
2023/01/18 01:09:16;;;;;;;14.37;7.00;;;0.10;1.00;;;;;;5029638;28;20388;-60
2023/01/18 01:12:33;;;;;;;14.17;7.73;;;0.10;1.00;;;;;;5038033;28;20689;-61
2023/01/18 01:28:21;;;;;;;11.53;6.90;;;0.20;1.00;;;;;;5040859;28;20301;-60
2023/01/18 01:30:48;;;;;;;13.27;7.27;;;0.10;1.00;;;;;;5040466;28;20690;-61
2023/01/18 01:33:17;;;;;;;14.47;8.00;;;0.10;1.00;;;;;;5035988;28;20262;-60
2023/01/18 01:35:44;;;;;;;11.80;6.90;;;0.00;1.00;;;;;;5040146;28;20226;-62
2023/01/18 01:38:10;;;;;;;13.40;7.73;;;0.10;1.00;;;;;;5038701;28;20198;-61
2023/01/18 01:40:37;;;;;;;15.87;7.40;;;0.10;1.00;;;;;;5036942;28;20689;-60
2023/01/18 01:43:10;;;;;;;12.13;7.33;;;0.00;1.00;;;;;;5040186;28;20595;-60
2023/01/18 01:45:37;;;;;;;12.00;6.73;;;0.00;1.00;;;;;;5039410;28;20247;-60
2023/01/18 01:48:04;;;;;;;12.03;6.93;;;0.00;1.00;;;;;;5041611;28;20203;-61
2023/01/18 01:50:37;;;;;;;11.17;6.00;;;0.00;1.00;;;;;;5037589;28;20203;-60
2023/01/18 01:53:05;;;;;;;15.07;7.90;;;0.10;1.00;;;;;;5041935;28;20620;-60
2023/01/18 01:55:36;;;;;;;13.27;7.40;;;0.10;1.00;;;;;;5039113;28;20726;-60
2023/01/18 01:58:24;;;;;;;11.67;6.90;;;0.00;1.00;;;;;;5041466;28;20202;-60
2023/01/18 02:00:53;;;;;;;9.00;6.20;;;0.00;1.00;;;;;;5039638;28;20231;-60
2023/01/18 02:03:21;;;;;;;11.70;7.13;;;0.00;1.00;;;;;;5039813;28;20241;-60
2023/01/18 02:05:55;;;;;;;13.07;7.63;;;-0.10;1.00;;;;;;5041436;28;20573;-60
2023/01/18 02:08:23;;;;;;;9.20;6.93;;;-0.10;1.00;;;;;;5040212;28;20242;-61
2023/01/18 02:10:53;;;;;;;9.33;6.67;;;-0.10;1.00;;;;;;5040361;28;20297;-60
2023/01/18 02:13:23;;;;;;;11.80;7.10;;;0.00;1.00;;;;;;5037796;28;20219;-61
2023/01/18 02:16:27;;;;;;;12.27;7.27;;;0.00;1.00;;;;;;5037856;28;20289;-60
2023/01/18 02:19:12;;;;;;;10.03;6.57;;;0.10;1.00;;;;;;5029296;28;20208;-61
2023/01/18 02:21:45;;;;;;;10.27;7.10;;;0.10;1.00;;;;;;5032041;28;20687;-60
2023/01/18 02:24:49;;;;;;;11.63;6.87;;;0.10;1.00;;;;;;5027223;28;20207;-60
2023/01/18 02:27:26;;;;;;;9.70;6.50;;;0.10;1.00;;;;;;5037109;28;20657;-63
2023/01/18 02:30:13;;;;;;;7.93;5.73;;;0.10;1.00;;;;;;5035360;28;20203;-67
2023/01/18 02:33:07;;;;;;;8.57;6.03;;;0.20;1.00;;;;;;5035757;28;20215;-63
2023/01/18 02:35:50;;;;;;;13.00;7.10;;;0.30;1.00;;;;;;5037725;28;20242;-65
2023/01/18 02:38:43;;;;;;;10.67;6.57;;;0.30;99.90;;;;;;5039132;28;20196;-60
2023/01/18 02:47:23;;;;;;;10.47;6.90;;;0.50;1.00;;;;;;5036499;28;20728;-60
2023/01/18 02:49:50;;;;;;;12.20;6.90;;;0.50;1.00;;;;;;5035088;28;20556;-60
2023/01/18 02:52:46;;;;;;;11.23;6.80;;;0.20;1.00;;;;;;5038503;28;20199;-61
2023/01/18 02:55:27;;;;;;;10.43;6.77;;;0.10;1.00;;;;;;5033450;28;20208;-60
2023/01/18 02:58:08;;;;;;;9.33;6.80;;;0.10;1.00;;;;;;5039963;28;20677;-60
2023/01/18 03:00:40;;;;;;;13.80;6.07;;;0.10;99.90;;;;;;5039025;28;20203;-61
2023/01/18 03:03:09;;;;;;;12.70;6.93;;;0.10;1.00;;;;;;5038944;28;20813;-60
2023/01/18 03:05:39;;;;;;;10.37;6.90;;;0.00;99.90;;;;;;5039412;28;20266;-60
2023/01/18 03:08:33;;;;;;;12.77;7.13;;;0.00;1.00;;;;;;5040534;28;20205;-60
2023/01/18 03:11:04;;;;;;;8.83;6.50;;;0.00;1.00;;;;;;5053753;28;20292;-60
2023/01/18 03:14:13;;;;;;;9.83;6.17;;;0.00;1.00;;;;;;5039467;28;20249;-60
2023/01/18 03:17:03;;;;;;;9.53;6.20;;;0.10;1.00;;;;;;5035484;28;20207;-60
2023/01/18 03:25:19;;;;;;;13.90;6.83;;;-0.10;1.00;;;;;;5034374;28;20566;-60
2023/01/18 03:33:46;;;;;;;12.63;6.07;;;0.00;1.00;;;;;;5027553;28;20281;-60
2023/01/18 03:36:27;;;;;;;8.60;6.10;;;0.10;1.00;;;;;;5027746;28;20274;-60
2023/01/18 03:38:59;;;;;;;10.83;6.20;;;0.30;1.00;;;;;;5030384;28;21255;-60
2023/01/18 03:41:31;;;;;;;10.87;6.20;;;0.30;1.00;;;;;;5030553;28;20300;-60
2023/01/18 03:44:03;;;;;;;9.37;6.47;;;0.10;99.90;;;;;;5029731;28;20319;-61
2023/01/18 03:46:31;;;;;;;10.97;6.10;;;0.20;1.00;;;;;;5032823;28;20238;-60
2023/01/18 03:48:58;;;;;;;11.90;6.30;;;0.30;99.90;;;;;;5029354;28;20207;-61
2023/01/18 03:51:53;;;;;;;10.00;5.97;;;0.30;99.90;;;;;;5027976;28;20210;-61
2023/01/18 03:54:27;;;;;;;9.30;6.03;;;0.10;1.00;;;;;;5026669;28;20223;-60
2023/01/18 03:57:26;;;;;;;9.13;5.97;;;0.10;99.90;;;;;;5026950;28;20294;-60
2023/01/18 03:59:53;;;;;;;9.77;5.73;;;0.10;99.90;;;;;;5028529;28;20206;-60
2023/01/18 04:02:21;;;;;;;9.80;5.87;;;-0.10;99.90;;;;;;5027470;28;20199;-60
2023/01/18 04:04:48;;;;;;;8.87;5.70;;;-0.10;1.00;;;;;;5028505;28;20216;-62
2023/01/18 04:07:15;;;;;;;23.23;6.37;;;-0.10;1.00;;;;;;5025762;28;20849;-61
2023/01/18 04:09:42;;;;;;;8.13;5.90;;;-0.10;1.00;;;;;;5024689;28;20203;-60
2023/01/18 04:12:09;;;;;;;9.63;5.90;;;-0.20;1.00;;;;;;5031030;28;20741;-60
2023/01/18 04:14:36;;;;;;;11.43;5.90;;;-0.20;1.00;;;;;;5028596;28;20240;-60
2023/01/18 04:17:03;;;;;;;13.47;6.37;;;-0.20;1.00;;;;;;5025183;28;20199;-61
2023/01/18 04:19:29;;;;;;;15.17;6.90;;;0.00;1.00;;;;;;5025510;28;20634;-61
2023/01/18 04:21:56;;;;;;;16.30;6.00;;;0.00;1.00;;;;;;5033891;28;20194;-60
2023/01/18 04:24:23;;;;;;;9.43;4.83;;;0.10;1.00;;;;;;5031743;28;20217;-61
2023/01/18 04:26:49;;;;;;;10.17;5.47;;;0.10;1.00;;;;;;5030069;28;21427;-61
2023/01/18 04:29:16;;;;;;;8.27;5.73;;;0.20;1.00;;;;;;5027192;28;20203;-61
2023/01/18 04:31:43;;;;;;;10.57;6.13;;;0.20;99.90;;;;;;5043961;28;20202;-62
2023/01/18 04:34:10;;;;;;;11.80;6.23;;;0.10;99.90;;;;;;5028613;28;20219;-61
2023/01/18 04:36:37;;;;;;;7.27;5.50;;;0.00;52.50;;;;;;5023593;28;20230;-61
2023/01/18 04:39:04;;;;;;;7.27;5.70;;;0.00;1.00;;;;;;5020324;28;20587;-61
2023/01/18 04:41:31;;;;;;;7.80;5.70;;;0.20;1.00;;;;;;5026287;28;20243;-61
2023/01/18 04:43:58;;;;;;;10.70;6.40;;;0.10;1.00;;;;;;5027192;28;20325;-63
2023/01/18 04:46:24;;;;;;;9.33;6.47;;;0.00;1.00;;;;;;5023653;28;20242;-62
2023/01/18 04:48:51;;;;;;;10.60;6.13;;;0.10;1.00;;;;;;5023944;28;20670;-62
2023/01/18 04:51:18;;;;;;;10.40;6.50;;;0.20;12.40;;;;;;5025536;28;20203;-61
2023/01/18 04:53:45;;;;;;;10.30;6.37;;;0.10;99.90;;;;;;5025847;28;20254;-62
2023/01/18 04:56:12;;;;;;;10.70;6.30;;;0.10;1.00;;;;;;5024692;28;20210;-65
2023/01/18 04:58:39;;;;;;;7.93;5.97;;;0.10;99.90;;;;;;5026137;28;20203;-61
2023/01/18 05:01:07;;;;;;;12.73;6.63;;;-0.10;99.90;;;;;;5031486;28;20728;-61
2023/01/18 05:03:37;;;;;;;10.83;6.13;;;-0.20;1.00;;;;;;5036424;28;20199;-62
2023/01/18 05:06:06;;;;;;;9.77;6.60;;;-0.20;1.00;;;;;;5031429;28;20338;-61
2023/01/18 05:08:33;;;;;;;12.20;6.53;;;-0.30;1.00;;;;;;5036183;28;20294;-61
2023/01/18 05:11:05;;;;;;;12.23;6.53;;;-0.30;99.90;;;;;;5034627;28;20203;-60
2023/01/18 05:13:32;;;;;;;11.30;6.30;;;-0.30;1.00;;;;;;5034069;28;20218;-60
2023/01/18 05:16:00;;;;;;;11.57;6.00;;;-0.30;99.90;;;;;;5030694;28;20205;-62
2023/01/18 05:18:28;;;;;;;10.97;6.90;;;-0.40;99.90;;;;;;5033471;28;20600;-62
2023/01/18 05:20:55;;;;;;;9.70;6.00;;;-0.30;1.00;;;;;;5051199;28;20633;-62
2023/01/18 05:23:22;;;;;;;15.50;7.53;;;-0.30;99.90;;;;;;5035715;28;20648;-60
2023/01/18 05:25:53;;;;;;;11.73;6.83;;;-0.40;1.00;;;;;;5032456;28;20209;-61
2023/01/18 05:28:22;;;;;;;15.23;7.57;;;-0.40;1.00;;;;;;5032751;28;20671;-61
2023/01/18 05:30:49;;;;;;;9.80;6.20;;;-0.40;99.90;;;;;;5036982;28;20209;-61
2023/01/18 05:33:20;;;;;;;10.70;6.30;;;-0.30;99.90;;;;;;5035474;28;20305;-61
2023/01/18 05:35:51;;;;;;;14.00;7.03;;;-0.40;99.90;;;;;;5034951;28;20227;-62
2023/01/18 05:38:19;;;;;;;12.10;6.80;;;-0.50;1.00;;;;;;5033331;28;20198;-62
2023/01/18 05:40:51;;;;;;;9.07;6.53;;;-0.40;1.00;;;;;;5035399;28;20228;-61
2023/01/18 05:43:20;;;;;;;10.97;7.33;;;-0.30;1.00;;;;;;5036813;28;20457;-61
2023/01/18 05:45:46;;;;;;;11.17;6.83;;;-0.20;1.00;;;;;;5035722;28;20244;-61
2023/01/18 05:48:14;;;;;;;9.20;6.47;;;-0.20;1.00;;;;;;5035964;28;20377;-61
2023/01/18 05:50:43;;;;;;;10.67;6.80;;;-0.30;1.00;;;;;;5052043;28;20223;-61
2023/01/18 05:53:11;;;;;;;11.00;6.83;;;-0.50;99.90;;;;;;5021884;28;20224;-62
2023/01/18 05:55:37;;;;;;;8.23;6.33;;;-0.50;1.00;;;;;;5035788;28;20722;-65
2023/01/18 05:58:05;;;;;;;14.50;6.67;;;-0.50;1.00;;;;;;5035488;28;20240;-61
2023/01/18 06:00:33;;;;;;;8.80;6.23;;;-0.50;1.00;;;;;;5040544;28;20204;-62
2023/01/18 06:03:01;;;;;;;11.83;7.27;;;-0.60;1.00;;;;;;5041827;28;20194;-62
2023/01/18 06:05:28;;;;;;;19.03;7.60;;;-0.50;1.00;;;;;;5041235;28;20199;-66
2023/01/18 06:07:55;;;;;;;9.43;6.80;;;-0.60;1.00;;;;;;5040583;28;20221;-63
2023/01/18 06:10:22;;;;;;;16.93;7.50;;;-0.50;1.00;;;;;;5039416;28;20205;-61
2023/01/18 06:12:48;;;;;;;13.63;6.77;;;-0.70;1.00;;;;;;5041658;28;20673;-61
2023/01/18 06:15:16;;;;;;;16.73;7.57;;;-0.70;1.00;;;;;;5038677;28;20319;-61
2023/01/18 06:17:45;;;;;;;13.70;6.93;;;-0.60;1.00;;;;;;5031375;28;20220;-61
2023/01/18 06:20:13;;;;;;;11.47;6.83;;;-0.60;1.00;;;;;;5031471;28;20195;-61
2023/01/18 06:22:40;;;;;;;14.43;7.40;;;-0.70;1.00;;;;;;5032456;28;20281;-61
2023/01/18 06:25:08;;;;;;;14.67;7.50;;;-0.80;1.00;;;;;;5039144;28;20211;-61
2023/01/18 06:27:37;;;;;;;15.13;7.63;;;-0.80;5.40;;;;;;5040517;28;20203;-62
2023/01/18 06:30:06;;;;;;;12.33;7.57;;;-0.80;1.00;;;;;;5039031;28;20217;-61
2023/01/18 06:32:33;;;;;;;12.03;6.93;;;-0.70;19.40;;;;;;5040997;28;20505;-61
2023/01/18 06:35:00;;;;;;;9.13;6.53;;;-0.80;1.00;;;;;;5037770;28;20266;-61
2023/01/18 06:37:27;;;;;;;11.00;7.30;;;-0.70;1.00;;;;;;5040865;28;20229;-62
2023/01/18 06:39:53;;;;;;;13.47;8.10;;;-0.80;1.00;;;;;;5039528;28;20214;-61
2023/01/18 06:42:20;;;;;;;14.07;7.33;;;-0.70;1.00;;;;;;5041199;28;20197;-62
2023/01/18 06:44:47;;;;;;;11.63;7.10;;;-0.70;1.00;;;;;;5037197;28;20203;-62
2023/01/18 06:47:18;;;;;;;12.17;7.97;;;-0.70;1.00;;;;;;5040884;28;20237;-61
2023/01/18 06:49:49;;;;;;;13.50;7.60;;;-0.60;1.00;;;;;;5039603;28;20685;-62
2023/01/18 06:52:16;;;;;;;13.00;7.67;;;-0.50;1.00;;;;;;5039386;28;20213;-61
2023/01/18 06:54:43;;;;;;;12.33;6.90;;;-0.60;1.00;;;;;;5039072;28;20647;-62
2023/01/18 06:57:11;;;;;;;11.40;7.40;;;-0.70;1.00;;;;;;5041137;28;20239;-62
2023/01/18 06:59:38;;;;;;;16.00;7.97;;;-0.60;1.00;;;;;;5038334;28;20675;-61
2023/01/18 07:02:05;;;;;;;13.77;7.67;;;-0.60;1.00;;;;;;5030659;28;20293;-62
2023/01/18 07:04:36;;;;;;;12.47;7.70;;;-0.70;1.00;;;;;;5021731;28;20212;-61
2023/01/18 07:07:03;;;;;;;12.70;7.67;;;-0.80;1.00;;;;;;5039534;28;20795;-62
2023/01/18 07:09:30;;;;;;;12.47;7.80;;;-0.70;1.00;;;;;;5038900;28;20294;-62
2023/01/18 07:11:56;;;;;;;14.57;7.93;;;-0.60;1.00;;;;;;5039408;28;20218;-61
2023/01/18 07:14:24;;;;;;;13.20;7.77;;;-0.80;1.00;;;;;;5038297;28;20269;-61
2023/01/18 07:16:51;;;;;;;11.30;7.60;;;-0.80;1.00;;;;;;5039751;28;20195;-61
2023/01/18 07:19:18;;;;;;;15.43;7.57;;;-0.70;1.00;;;;;;5039390;28;20682;-61
2023/01/18 07:21:44;;;;;;;15.50;8.57;;;-0.70;1.00;;;;;;5039911;28;20313;-61
2023/01/18 07:24:11;;;;;;;12.57;8.73;;;-0.80;1.00;;;;;;5038630;28;20578;-61
2023/01/18 07:26:38;;;;;;;13.83;8.33;;;-0.70;1.00;;;;;;5033913;28;21490;-62
2023/01/18 07:29:05;;;;;;;10.50;7.13;;;-0.80;1.00;;;;;;5028061;28;20218;-61
2023/01/18 07:31:31;;;;;;;9.83;7.47;;;-0.80;1.00;;;;;;5035508;28;20556;-61
2023/01/18 07:33:58;;;;;;;13.80;8.20;;;-0.80;1.00;;;;;;5036234;28;20215;-62
2023/01/18 07:36:25;;;;;;;14.57;8.40;;;-0.80;1.00;;;;;;5037571;28;20222;-61
2023/01/18 07:38:52;;;;;;;11.93;7.50;;;-0.90;1.00;;;;;;5037755;28;20624;-61
2023/01/18 07:41:19;;;;;;;14.10;7.40;;;-0.90;1.00;;;;;;5039179;28;20224;-61
2023/01/18 07:43:45;;;;;;;13.83;7.87;;;-0.90;1.00;;;;;;5038352;28;20317;-61
2023/01/18 07:46:17;;;;;;;15.13;7.93;;;-0.90;14.40;;;;;;5035096;28;20239;-60
2023/01/18 07:48:44;;;;;;;13.77;8.00;;;-0.90;1.00;;;;;;5034188;28;20563;-61
2023/01/18 07:51:12;;;;;;;11.90;7.53;;;-1.00;2.10;;;;;;5038174;28;20577;-60
2023/01/18 07:53:38;;;;;;;16.03;9.03;;;-0.90;17.00;;;;;;5030193;28;20634;-60
2023/01/18 07:56:12;;;;;;;17.23;8.83;;;-0.80;3.10;;;;;;5031513;28;20287;-60
2023/01/18 07:58:39;;;;;;;13.83;8.30;;;-0.90;1.00;;;;;;5034782;28;20293;-61
2023/01/18 08:01:10;;;;;;;14.23;8.37;;;-0.80;1.00;;;;;;5030063;28;21008;-61
2023/01/18 08:03:37;;;;;;;12.97;8.23;;;-0.90;1.00;;;;;;5028360;28;20764;-60
2023/01/18 08:06:06;;;;;;;15.90;8.77;;;-0.80;1.00;;;;;;5031813;28;20198;-61
2023/01/18 08:08:35;;;;;;;17.67;9.67;;;-0.70;1.00;;;;;;5020680;28;20204;-63
2023/01/18 08:11:04;;;;;;;15.67;8.33;;;-0.80;1.00;;;;;;4663416;28;10000401;-62
2023/01/18 08:13:31;;;;;;;13.13;8.83;;;-0.60;1.00;;;;;;5017654;28;20208;-62
2023/01/18 08:16:00;;;;;;;12.07;8.20;;;-0.80;1.00;;;;;;5024916;28;20687;-61
2023/01/18 08:18:27;;;;;;;13.87;9.07;;;-0.70;1.00;;;;;;5025060;28;20670;-60
2023/01/18 08:20:54;;;;;;;11.83;8.63;;;-0.70;99.90;;;;;;5024795;28;20284;-59
2023/01/18 08:23:21;;;;;;;13.63;9.10;;;-0.40;1.00;;;;;;5030570;28;20216;-59
2023/01/18 08:25:48;;;;;;;17.03;8.87;;;-0.20;99.90;;;;;;5012623;28;20215;-61
2023/01/18 08:28:15;;;;;;;17.67;9.37;;;-0.30;99.90;;;;;;5021738;28;20204;-61
2023/01/18 08:30:47;;;;;;;14.53;8.67;;;-0.10;1.00;;;;;;5022718;28;20220;-59
2023/01/18 08:33:14;;;;;;;14.90;8.77;;;0.00;1.00;;;;;;5012326;28;20382;-62
2023/01/18 08:35:43;;;;;;;13.10;8.97;;;0.10;99.90;;;;;;5006649;28;20242;-61
2023/01/18 08:38:11;;;;;;;16.27;9.03;;;0.30;1.00;;;;;;5021089;28;20198;-60
2023/01/18 08:40:39;;;;;;;12.63;8.97;;;0.40;1.00;;;;;;5015426;28;20202;-60
2023/01/18 08:43:06;;;;;;;17.23;8.50;;;0.50;1.00;;;;;;5018570;28;20206;-61
2023/01/18 08:45:36;;;;;;;13.13;7.90;;;0.60;99.90;;;;;;5020020;28;20645;-61
2023/01/18 08:48:09;;;;;;;12.37;8.73;;;0.70;99.90;;;;;;5025000;28;20226;-60
2023/01/18 08:50:38;;;;;;;13.77;8.77;;;0.90;1.00;;;;;;5013975;28;20224;-64
2023/01/18 08:53:05;;;;;;;11.57;8.43;;;0.90;1.00;;;;;;5018536;28;20266;-61
2023/01/18 08:55:35;;;;;;;13.27;8.70;;;0.90;99.90;;;;;;5015418;28;20211;-60
2023/01/18 08:58:02;;;;;;;14.23;8.50;;;1.10;99.90;;;;;;5023924;28;20223;-62
2023/01/18 09:00:29;;;;;;;13.97;8.77;;;1.40;99.90;;;;;;5020591;28;20204;-60
2023/01/18 09:02:56;;;;;;;12.63;8.10;;;1.50;1.00;;;;;;5021354;28;20280;-60
2023/01/18 09:05:25;;;;;;;16.33;8.93;;;1.60;1.00;;;;;;5022976;28;20227;-60
2023/01/18 09:07:54;;;;;;;16.20;8.57;;;1.70;1.00;;;;;;5030519;28;20205;-60
2023/01/18 09:10:22;;;;;;;11.20;7.90;;;1.50;99.90;;;;;;5018617;28;20205;-60
2023/01/18 09:12:48;;;;;;;12.40;8.40;;;1.30;99.90;;;;;;5020963;28;20781;-60
2023/01/18 09:15:18;;;;;;;16.23;8.70;;;1.40;1.00;;;;;;5021424;28;20233;-60
2023/01/18 09:17:45;;;;;;;12.83;8.63;;;1.30;99.90;;;;;;5028781;28;20223;-60
2023/01/18 09:20:12;;;;;;;11.77;8.33;;;1.10;1.00;;;;;;5026111;28;20887;-61
2023/01/18 09:22:41;;;;;;;13.17;8.47;;;1.10;1.00;;;;;;5021088;28;20203;-60
2023/01/18 09:25:09;;;;;;;15.20;8.57;;;1.10;1.00;;;;;;5019011;28;20600;-60
2023/01/18 09:27:36;;;;;;;14.67;9.20;;;1.40;1.00;;;;;;5017822;28;20222;-60
2023/01/18 09:30:04;;;;;;;14.07;9.07;;;1.70;1.00;;;;;;5029504;28;20254;-60
2023/01/18 09:32:31;;;;;;;13.63;8.50;;;1.90;1.00;;;;;;5027123;28;20569;-60
2023/01/18 09:34:58;;;;;;;13.63;8.03;;;2.30;99.90;;;;;;5034141;28;20225;-60
2023/01/18 09:37:24;;;;;;;10.37;8.37;;;2.50;1.00;;;;;;5037164;28;20234;-60
2023/01/18 09:39:51;;;;;;;10.50;7.80;;;2.70;1.00;;;;;;5034174;28;20211;-60
2023/01/18 09:42:26;;;;;;;14.73;7.97;;;2.80;1.00;;;;;;5036610;28;20254;-60
2023/01/18 09:45:03;;;;;;;13.27;7.47;;;3.00;99.90;;;;;;5052729;28;20198;-61
2023/01/18 09:47:38;;;;;;;12.77;7.80;;;3.60;99.90;;;;;;5037171;28;20330;-60
2023/01/18 09:50:16;;;;;;;9.87;7.97;;;3.60;99.90;;;;;;5036858;28;20237;-60
2023/01/18 09:53:04;;;;;;;14.70;7.30;;;3.80;1.00;;;;;;5037784;28;20196;-61
2023/01/18 09:55:32;;;;;;;12.67;8.30;;;3.80;99.90;;;;;;5028421;28;20219;-60
2023/01/18 09:58:36;;;;;;;14.23;8.13;;;4.00;77.20;;;;;;5030883;28;20236;-60
2023/01/18 10:01:25;;;;;;;10.17;6.40;;;3.50;99.90;;;;;;5033950;28;20196;-60
2023/01/18 10:03:57;;;;;;;10.70;7.37;;;3.20;99.90;;;;;;5040294;28;20847;-60
2023/01/18 10:06:29;;;;;;;10.03;6.67;;;3.60;1.00;;;;;;5038882;28;20210;-60
2023/01/18 10:09:01;;;;;;;9.27;7.27;;;3.60;99.90;;;;;;5039155;28;20263;-59
2023/01/18 10:11:43;;;;;;;13.13;7.53;;;3.60;99.90;;;;;;5035807;28;20288;-60
2023/01/18 10:14:20;;;;;;;15.20;8.07;;;3.60;99.90;;;;;;5022042;28;20208;-60
2023/01/18 10:16:56;;;;;;;10.37;7.53;;;3.70;99.90;;;;;;5024567;28;20204;-60
2023/01/18 10:19:28;;;;;;;10.67;7.23;;;3.60;99.90;;;;;;5038413;28;20197;-62
2023/01/18 10:22:17;;;;;;;9.10;7.07;;;3.50;99.90;;;;;;5037689;28;20227;-61
2023/01/18 10:24:58;;;;;;;11.07;6.47;;;3.50;1.00;;;;;;5036348;28;20636;-60
2023/01/18 10:28:04;;;;;;;9.53;7.03;;;3.60;1.00;;;;;;5038102;28;20200;-60
2023/01/18 10:30:43;;;;;;;8.67;6.17;;;3.50;1.00;;;;;;5033353;28;20220;-60
2023/01/18 10:33:33;;;;;;;13.03;6.97;;;3.40;99.90;;;;;;5036267;28;20208;-60
2023/01/18 10:36:11;;;;;;;10.13;5.97;;;3.50;1.00;;;;;;5033328;28;20798;-60
2023/01/18 10:38:39;;;;;;;9.23;6.50;;;3.40;1.00;;;;;;5023500;28;20712;-60
2023/01/18 10:41:17;;;;;;;11.07;6.70;;;3.40;1.00;;;;;;5031911;28;21730;-61
2023/01/18 10:43:44;;;;;;;8.90;6.53;;;3.40;1.00;;;;;;5022150;28;20288;-60
2023/01/18 10:46:17;;;;;;;7.53;5.97;;;3.60;1.00;;;;;;5025959;28;20248;-60
2023/01/18 10:48:53;;;;;;;9.43;6.53;;;3.60;1.00;;;;;;5032050;28;20226;-60
2023/01/18 10:51:29;;;;;;;9.93;6.67;;;3.70;1.00;;;;;;5021866;28;20200;-60
2023/01/18 10:53:57;;;;;;;11.03;6.30;;;3.90;1.00;;;;;;5034203;28;20205;-60
2023/01/18 10:56:27;;;;;;;9.77;6.30;;;3.90;1.00;;;;;;5032441;28;20213;-60
2023/01/18 10:58:56;;;;;;;8.73;6.47;;;3.90;99.90;;;;;;5034086;28;20568;-59
2023/01/18 11:01:26;;;;;;;11.67;6.43;;;3.80;1.00;;;;;;5036796;28;20205;-60
2023/01/18 11:04:04;;;;;;;8.03;6.33;;;3.80;1.00;;;;;;5034413;28;20206;-59
2023/01/18 11:06:53;;;;;;;7.23;5.73;;;3.80;1.00;;;;;;5033112;28;20204;-59
2023/01/18 11:09:42;;;;;;;11.30;6.60;;;4.10;1.00;;;;;;5021670;28;20254;-60
2023/01/18 11:12:33;;;;;;;7.87;5.70;;;4.30;1.00;;;;;;5036979;28;20679;-59
2023/01/18 11:15:15;;;;;;;9.13;6.13;;;4.20;1.00;;;;;;5032883;28;20232;-59
2023/01/18 11:17:59;;;;;;;10.97;5.77;;;4.10;1.00;;;;;;5032341;28;20230;-61
2023/01/18 11:20:44;;;;;;;7.97;5.10;;;4.40;1.00;;;;;;5034904;28;20287;-60
2023/01/18 11:23:16;;;;;;;7.80;5.10;;;4.70;1.00;;;;;;5033281;28;20741;-60
2023/01/18 11:25:45;;;;;;;9.27;5.37;;;4.50;99.90;;;;;;5027140;28;20290;-61
2023/01/18 11:28:22;;;;;;;8.60;4.73;;;4.50;99.90;;;;;;5032472;28;20224;-61
2023/01/18 11:30:57;;;;;;;6.17;4.63;;;4.50;99.90;;;;;;5028926;28;20302;-61
2023/01/18 11:33:26;;;;;;;7.70;5.13;;;4.50;99.90;;;;;;5025511;28;20497;-61
2023/01/18 11:35:58;;;;;;;9.33;4.57;;;4.60;99.90;;;;;;5032407;28;20259;-61
2023/01/18 11:38:31;;;;;;;5.77;4.60;;;4.80;99.90;;;;;;5032079;28;20197;-60
2023/01/18 11:41:19;;;;;;;6.97;4.90;;;4.90;99.90;;;;;;5029321;28;20209;-61
2023/01/18 11:43:54;;;;;;;8.80;4.37;;;5.10;25.40;;;;;;5030697;28;20204;-61
2023/01/18 11:46:38;;;;;;;5.20;4.13;;;5.10;1.00;;;;;;5031703;28;20335;-61
2023/01/18 11:49:23;;;;;;;8.27;4.40;;;5.40;1.00;;;;;;5026668;28;20789;-61
2023/01/18 11:52:01;;;;;;;6.77;4.10;;;5.80;1.00;;;;;;5026717;28;20236;-61
2023/01/18 11:54:42;;;;;;;8.93;4.13;;;5.90;1.00;;;;;;5015536;28;20835;-61
2023/01/18 11:57:11;;;;;;;5.13;3.43;;;5.60;1.00;;;;;;5029876;28;20648;-60
2023/01/18 11:59:44;;;;;;;6.77;4.00;;;5.70;1.00;;;;;;5025165;28;20250;-61
2023/01/18 12:02:35;;;;;;;8.00;3.37;;;6.00;1.00;;;;;;5034383;28;20532;-61
2023/01/18 12:05:19;;;;;;;6.07;3.53;;;6.10;1.00;;;;;;5029139;28;20206;-62
2023/01/18 12:08:01;;;;;;;5.80;3.90;;;6.20;1.00;;;;;;5028154;28;20307;-60
2023/01/18 12:10:55;;;;;;;4.10;3.70;;;6.20;1.00;;;;;;5023767;28;20653;-61
2023/01/18 12:13:38;;;;;;;5.43;4.03;;;6.10;1.00;;;;;;5030053;28;20832;-61
2023/01/18 12:16:16;;;;;;;6.83;3.57;;;6.10;1.00;;;;;;5023897;28;20585;-62
2023/01/18 12:18:56;;;;;;;4.50;3.03;;;5.90;1.00;;;;;;5030182;28;20559;-61
2023/01/18 12:21:32;;;;;;;4.17;3.27;;;6.20;1.00;;;;;;5027225;28;20218;-63
2023/01/18 12:24:02;;;;;;;6.03;3.27;;;6.00;1.00;;;;;;5030610;28;20821;-61
2023/01/18 12:26:48;;;;;;;4.17;2.80;;;6.00;1.00;;;;;;5029617;28;20303;-62
2023/01/18 12:29:23;;;;;;;6.43;3.17;;;5.80;1.00;;;;;;5008178;28;20202;-61
2023/01/18 12:32:24;;;;;;;9.63;2.90;;;5.60;1.00;;;;;;5025306;28;20199;-62
2023/01/18 12:35:15;;;;;;;4.40;3.40;;;5.60;1.00;;;;;;5023211;28;20251;-61
2023/01/18 12:38:06;;;;;;;7.77;3.50;;;5.40;1.00;;;;;;5027247;28;20201;-61
2023/01/18 12:40:48;;;;;;;6.37;3.53;;;5.30;22.70;;;;;;5027184;28;20661;-61
2023/01/18 12:43:37;;;;;;;7.53;3.33;;;5.70;1.00;;;;;;5026211;28;20209;-62
2023/01/18 12:46:08;;;;;;;3.40;2.47;;;6.10;1.00;;;;;;5025432;28;20240;-61
2023/01/18 12:48:45;;;;;;;5.87;2.73;;;6.10;1.00;;;;;;5024392;28;20207;-61
2023/01/18 12:51:16;;;;;;;7.17;2.77;;;6.00;1.00;;;;;;5031653;28;20204;-61
2023/01/18 12:53:58;;;;;;;8.37;2.97;;;5.90;1.00;;;;;;5019557;28;20302;-61
2023/01/18 12:56:34;;;;;;;4.33;2.70;;;6.40;1.00;;;;;;5022187;28;20239;-62
2023/01/18 12:59:18;;;;;;;4.53;3.33;;;6.20;1.00;;;;;;5024093;28;20205;-61
2023/01/18 13:01:53;;;;;;;6.27;3.70;;;6.40;1.00;;;;;;5025148;28;20231;-61
2023/01/18 13:04:30;;;;;;;4.27;2.43;;;6.10;1.00;;;;;;5030331;28;20260;-61
2023/01/18 13:07:01;;;;;;;4.43;3.10;;;6.20;1.00;;;;;;5022787;28;20702;-62
2023/01/18 13:09:34;;;;;;;4.33;2.83;;;6.00;1.00;;;;;;5025108;28;20200;-61
2023/01/18 13:12:04;;;;;;;6.40;2.40;;;6.30;1.00;;;;;;5023206;28;20664;-61
2023/01/18 13:14:44;;;;;;;4.67;2.60;;;6.10;1.00;;;;;;5027064;28;20295;-61
2023/01/18 13:17:29;;;;;;;5.60;2.90;;;6.00;1.00;;;;;;5027241;28;20303;-61
2023/01/18 13:20:18;;;;;;;4.70;2.80;;;5.80;1.00;;;;;;5029275;28;20225;-61
2023/01/18 13:23:21;;;;;;;3.23;2.50;;;5.70;1.00;;;;;;5026599;28;20340;-61
2023/01/18 13:26:06;;;;;;;5.70;2.90;;;6.00;1.00;;;;;;5018900;28;20230;-61
2023/01/18 13:28:33;;;;;;;7.50;3.23;;;6.00;1.00;;;;;;5020400;28;20236;-65
2023/01/18 13:31:03;;;;;;;3.77;2.67;;;6.10;1.00;;;;;;5029483;28;20233;-61
2023/01/18 13:33:34;;;;;;;5.60;3.37;;;6.00;1.00;;;;;;5031544;28;20208;-61
2023/01/18 13:36:07;;;;;;;5.73;2.80;;;6.00;1.00;;;;;;5011674;28;20228;-61
2023/01/18 13:38:50;;;;;;;4.17;2.70;;;5.90;1.00;;;;;;5021460;28;20300;-62
2023/01/18 13:41:26;;;;;;;4.83;3.20;;;6.10;1.00;;;;;;5020709;28;20215;-61
2023/01/18 13:44:00;;;;;;;3.07;2.37;;;6.00;1.00;;;;;;5031835;28;20212;-62
2023/01/18 13:46:29;;;;;;;5.23;2.87;;;5.70;1.00;;;;;;5033047;28;20227;-61
2023/01/18 13:49:20;;;;;;;8.47;3.07;;;5.80;1.00;;;;;;5036974;28;20197;-61
2023/01/18 13:52:28;;;;;;;3.33;2.50;;;5.90;1.00;;;;;;5026806;28;20303;-61
2023/01/18 13:54:55;;;;;;;9.17;3.10;;;6.20;1.00;;;;;;5015970;28;20205;-61
2023/01/18 13:57:23;;;;;;;7.10;3.90;;;6.20;1.00;;;;;;5024902;28;20205;-61